createdAt,value
2018-10-18T00:01:49.239Z,98.70
2018-10-18T00:04:24.295Z,98.60
2018-10-18T00:07:02.437Z,98.20
2018-10-18T00:09:31.784Z,98.40
2018-10-18T00:12:00.888Z,97.90
2018-10-18T00:14:29.692Z,98.30
2018-10-18T00:16:59.786Z,98.10
2018-10-18T00:19:28.524Z,98.60
2018-10-18T00:21:58.101Z,98.70
2018-10-18T00:24:26.855Z,98.60
2018-10-18T00:26:55.814Z,98.60
2018-10-18T00:29:24.544Z,98.60
2018-10-18T00:31:53.336Z,98.60
2018-10-18T00:34:23.313Z,98.60
2018-10-18T00:36:52.039Z,98.50
2018-10-18T00:39:20.776Z,98.60
2018-10-18T00:41:49.514Z,98.50
2018-10-18T00:44:19.363Z,98.40
2018-10-18T00:46:48.144Z,98.50
2018-10-18T00:49:16.930Z,98.50
2018-10-18T00:51:46.202Z,98.50
2018-10-18T00:54:15.036Z,98.50
2018-10-18T00:56:43.662Z,98.50
2018-10-18T00:59:12.344Z,98.70
2018-10-18T01:01:41.397Z,98.60
2018-10-18T01:04:12.508Z,98.50
2018-10-18T01:06:41.230Z,98.50
2018-10-18T01:09:12.511Z,98.50
2018-10-18T01:11:43.420Z,98.50
2018-10-18T01:14:12.175Z,98.30
2018-10-18T01:16:41.271Z,98.70
2018-10-18T01:19:10.389Z,98.70
2018-10-18T01:21:39.465Z,98.70
2018-10-18T01:24:09.086Z,98.90
2018-10-18T01:26:37.831Z,98.00
2018-10-18T01:29:06.922Z,98.90
2018-10-18T01:31:35.731Z,99.00
2018-10-18T01:34:04.885Z,99.00
2018-10-18T01:36:33.596Z,99.10
2018-10-18T01:39:02.701Z,99.00
2018-10-18T01:41:31.555Z,99.50
2018-10-18T01:44:00.259Z,99.20
2018-10-18T01:46:29.156Z,99.20
2018-10-18T01:48:58.924Z,99.20
2018-10-18T01:51:27.544Z,99.00
2018-10-18T01:53:56.356Z,99.00
2018-10-18T01:56:25.143Z,99.00
2018-10-18T01:58:53.952Z,99.90
2018-10-18T02:01:24.652Z,99.00
2018-10-18T02:03:53.519Z,98.60
2018-10-18T02:06:22.300Z,98.80
2018-10-18T02:08:50.843Z,99.20
2018-10-18T02:11:19.725Z,99.20
2018-10-18T02:13:49.209Z,99.10
2018-10-18T02:16:17.847Z,99.10
2018-10-18T02:18:47.077Z,99.10
2018-10-18T02:21:15.717Z,99.10
2018-10-18T02:23:44.805Z,98.90
2018-10-18T02:26:13.575Z,99.30
2018-10-18T02:28:42.461Z,99.30
2018-10-18T02:31:11.176Z,99.30
2018-10-18T02:33:39.926Z,99.40
2018-10-18T02:36:08.590Z,99.30
2018-10-18T02:38:38.439Z,99.40
2018-10-18T02:41:07.780Z,99.50
2018-10-18T02:43:36.540Z,99.20
2018-10-18T02:46:06.301Z,99.50
2018-10-18T02:48:34.934Z,99.40
2018-10-18T02:51:05.095Z,99.50
2018-10-18T02:53:34.245Z,99.60
2018-10-18T02:56:05.242Z,99.80
2018-10-18T02:58:33.979Z,99.80
2018-10-18T03:01:03.641Z,99.50
2018-10-18T03:03:32.333Z,99.90
2018-10-18T03:06:01.229Z,99.80
2018-10-18T03:08:30.033Z,99.90
2018-10-18T03:10:58.831Z,99.90
2018-10-18T03:13:27.738Z,99.90
2018-10-18T03:15:56.505Z,99.90
2018-10-18T03:18:25.249Z,99.80
2018-10-18T03:20:53.926Z,99.30
2018-10-18T03:23:22.696Z,99.60
2018-10-18T03:25:51.295Z,99.50
2018-10-18T03:28:20.010Z,99.50
2018-10-18T03:30:48.783Z,99.70
2018-10-18T03:33:18.269Z,99.90
2018-10-18T03:35:46.969Z,99.90
2018-10-18T03:38:15.746Z,99.90
2018-10-18T03:40:44.434Z,99.90
2018-10-18T03:43:13.064Z,99.90
2018-10-18T03:45:43.241Z,99.90
2018-10-18T03:48:11.979Z,99.90
2018-10-18T03:50:40.671Z,99.90
2018-10-18T03:53:09.389Z,99.90
2018-10-18T03:55:38.267Z,99.90
2018-10-18T03:58:07.274Z,99.90
2018-10-18T04:00:36.800Z,99.90
2018-10-18T04:03:05.804Z,99.90
2018-10-18T04:05:34.555Z,99.90
2018-10-18T04:08:03.724Z,99.80
2018-10-18T04:10:33.575Z,99.90
2018-10-18T04:13:03.352Z,99.80
2018-10-18T04:15:32.906Z,99.90
2018-10-18T04:18:02.829Z,99.90
2018-10-18T04:20:32.206Z,99.90
2018-10-18T04:23:01.539Z,99.90
2018-10-18T04:25:32.504Z,99.80
2018-10-18T04:28:03.202Z,99.90
2018-10-18T04:30:32.021Z,99.90
2018-10-18T04:33:01.038Z,99.70
2018-10-18T04:35:29.827Z,99.80
2018-10-18T04:37:58.845Z,99.70
2018-10-18T04:40:29.821Z,99.80
2018-10-18T04:42:58.690Z,99.80
2018-10-18T04:45:27.308Z,99.70
2018-10-18T04:47:56.176Z,99.90
2018-10-18T04:50:24.966Z,99.90
2018-10-18T04:52:53.669Z,99.90
2018-10-18T04:55:22.443Z,99.90
2018-10-18T04:57:51.301Z,99.90
2018-10-18T05:00:19.976Z,99.90
2018-10-18T05:02:49.458Z,99.90
2018-10-18T05:05:29.185Z,99.90
2018-10-18T05:07:57.979Z,99.90
2018-10-18T05:10:30.251Z,99.90
2018-10-18T05:12:59.046Z,99.90
2018-10-18T05:15:27.681Z,99.80
2018-10-18T05:17:56.666Z,99.90
2018-10-18T05:20:25.890Z,99.90
2018-10-18T05:22:56.088Z,99.90
2018-10-18T05:25:25.405Z,99.90
2018-10-18T05:27:54.227Z,99.90
2018-10-18T05:30:22.993Z,99.90
2018-10-18T05:32:54.746Z,99.90
2018-10-18T05:35:25.889Z,99.90
2018-10-18T05:37:55.051Z,99.90
2018-10-18T05:40:24.099Z,99.90
2018-10-18T05:42:54.861Z,99.90
2018-10-18T05:45:23.583Z,99.90
2018-10-18T05:47:54.458Z,99.90
2018-10-18T05:50:23.099Z,99.70
2018-10-18T05:52:51.844Z,99.70
2018-10-18T05:55:20.672Z,99.90
2018-10-18T05:57:49.470Z,99.70
2018-10-18T06:00:19.051Z,99.90
2018-10-18T06:02:48.118Z,99.90
2018-10-18T06:05:17.696Z,99.70
2018-10-18T06:07:46.658Z,99.90
2018-10-18T06:10:27.879Z,99.90
2018-10-18T06:12:56.773Z,99.90
2018-10-18T06:15:25.483Z,99.90
2018-10-18T06:17:54.373Z,99.90
2018-10-18T06:20:23.191Z,99.90
2018-10-18T06:22:52.269Z,99.90
2018-10-18T06:25:21.463Z,99.90
2018-10-18T06:27:50.327Z,99.80
2018-10-18T06:30:22.277Z,99.70
2018-10-18T06:32:51.190Z,99.90
2018-10-18T06:35:25.677Z,99.90
2018-10-18T06:38:09.142Z,99.60
2018-10-18T06:40:39.815Z,99.50
2018-10-18T06:43:10.256Z,99.80
2018-10-18T06:45:39.264Z,99.60
2018-10-18T06:48:08.891Z,99.50
2018-10-18T06:50:37.594Z,99.60
2018-10-18T06:53:06.525Z,99.20
2018-10-18T06:55:36.914Z,99.50
2018-10-18T06:58:07.703Z,99.50
2018-10-18T07:00:36.675Z,99.20
2018-10-18T07:03:05.668Z,99.10
2018-10-18T07:05:35.221Z,99.20
2018-10-18T07:08:11.800Z,99.50
2018-10-18T07:10:41.087Z,99.60
2018-10-18T07:13:11.661Z,99.10
2018-10-18T07:15:40.503Z,99.50
2018-10-18T07:18:13.269Z,99.40
2018-10-18T07:20:42.860Z,99.40
2018-10-18T07:23:12.068Z,99.00
2018-10-18T07:25:41.033Z,99.30
2018-10-18T07:28:09.960Z,99.30
2018-10-18T07:30:39.810Z,98.90
2018-10-18T07:33:08.828Z,98.60
2018-10-18T07:35:37.794Z,98.90
2018-10-18T07:38:10.206Z,99.10
2018-10-18T07:40:39.391Z,98.70
2018-10-18T07:43:08.488Z,98.50
2018-10-18T07:45:37.334Z,98.30
2018-10-18T07:48:08.383Z,98.40
2018-10-18T07:50:37.390Z,98.50
2018-10-18T07:53:11.343Z,98.50
2018-10-18T07:55:40.321Z,98.40
2018-10-18T07:58:09.852Z,97.90
2018-10-18T08:00:39.715Z,98.10
2018-10-18T08:03:08.627Z,97.70
2018-10-18T08:05:37.629Z,98.00
2018-10-18T08:08:06.940Z,97.60
2018-10-18T08:10:35.654Z,97.50
2018-10-18T08:13:05.074Z,97.60
2018-10-18T08:15:33.969Z,97.60
2018-10-18T08:18:03.013Z,97.40
2018-10-18T08:20:32.231Z,97.30
2018-10-18T08:23:02.058Z,97.00
2018-10-18T08:25:39.801Z,96.50
2018-10-18T08:28:15.241Z,95.80
2018-10-18T08:30:45.632Z,96.30
2018-10-18T08:33:14.916Z,96.40
2018-10-18T08:35:43.639Z,96.40
2018-10-18T08:38:12.497Z,96.30
2018-10-18T08:40:47.922Z,95.80
2018-10-18T08:45:53.123Z,95.40
2018-10-18T08:48:22.071Z,95.40
2018-10-18T08:50:50.946Z,95.20
2018-10-18T08:53:19.746Z,95.00
2018-10-18T08:55:48.514Z,94.90
2018-10-18T09:05:19.842Z,94.50
2018-10-18T09:10:54.045Z,94.00
2018-10-18T09:13:42.966Z,94.00
2018-10-18T09:16:23.178Z,94.00
2018-10-18T09:18:59.373Z,93.90
2018-10-18T09:21:36.076Z,92.50
2018-10-18T09:24:14.331Z,93.30
2018-10-18T09:26:43.623Z,92.80
2018-10-18T09:29:12.745Z,92.80
2018-10-18T09:31:41.859Z,93.10
2018-10-18T09:34:13.186Z,92.70
2018-10-18T09:36:42.314Z,92.20
2018-10-18T09:39:11.116Z,92.30
2018-10-18T09:41:41.119Z,92.80
2018-10-18T09:44:09.999Z,92.70
2018-10-18T09:46:38.887Z,91.80
2018-10-18T09:49:07.805Z,92.00
2018-10-18T09:51:36.537Z,92.10
2018-10-18T09:54:05.744Z,91.70
2018-10-18T09:56:34.651Z,91.40
2018-10-18T09:59:03.591Z,91.40
2018-10-18T10:01:40.086Z,91.20
2018-10-18T10:04:11.668Z,91.10
2018-10-18T10:06:40.476Z,87.70
2018-10-18T10:09:09.632Z,86.50
2018-10-18T10:11:39.031Z,83.80
2018-10-18T10:14:11.479Z,80.90
2018-10-18T10:16:45.621Z,79.80
2018-10-18T10:19:14.812Z,79.20
2018-10-18T10:21:45.517Z,77.70
2018-10-18T10:24:15.053Z,77.30
2018-10-18T10:26:43.844Z,79.20
2018-10-18T10:29:12.576Z,78.10
2018-10-18T10:31:41.512Z,78.90
2018-10-18T10:34:11.168Z,77.30
2018-10-18T10:36:40.046Z,76.50
2018-10-18T10:39:09.629Z,76.60
2018-10-18T10:41:38.795Z,76.90
2018-10-18T10:44:15.021Z,75.10
2018-10-18T10:46:48.681Z,74.70
2018-10-18T10:49:17.821Z,74.50
2018-10-18T10:51:46.418Z,74.40
2018-10-18T10:54:15.181Z,74.10
2018-10-18T10:56:44.289Z,75.70
2018-10-18T10:59:19.790Z,75.40
2018-10-18T11:01:53.664Z,73.60
2018-10-18T11:04:22.889Z,71.00
2018-10-18T11:06:51.763Z,71.90
2018-10-18T11:09:20.596Z,73.40
2018-10-18T11:11:49.349Z,70.60
2018-10-18T11:14:18.114Z,71.00
2018-10-18T11:16:46.834Z,71.30
2018-10-18T11:19:15.770Z,70.60
2018-10-18T11:21:44.624Z,70.50
2018-10-18T11:24:13.543Z,70.80
2018-10-18T11:26:42.677Z,71.00
2018-10-18T11:29:11.450Z,71.20
2018-10-18T11:31:40.211Z,71.60
2018-10-18T11:34:09.902Z,71.40
2018-10-18T11:36:38.802Z,70.70
2018-10-18T11:39:08.536Z,70.50
2018-10-18T11:41:37.383Z,70.50
2018-10-18T11:44:06.734Z,70.10
2018-10-18T11:46:35.663Z,68.50
2018-10-18T11:49:04.497Z,69.30
2018-10-18T11:51:34.042Z,68.30
2018-10-18T11:54:03.151Z,69.20
2018-10-18T11:56:32.032Z,68.10
2018-10-18T11:59:00.895Z,67.10
2018-10-18T12:01:30.346Z,66.80
2018-10-18T12:03:59.187Z,66.20
2018-10-18T12:06:27.908Z,65.20
2018-10-18T12:09:00.531Z,63.10
2018-10-18T12:11:37.311Z,63.10
2018-10-18T12:14:07.480Z,62.30
2018-10-18T12:16:37.218Z,63.10
2018-10-18T12:19:06.664Z,63.50
2018-10-18T12:21:35.572Z,62.70
2018-10-18T12:24:07.102Z,62.90
2018-10-18T12:26:35.898Z,61.80
2018-10-18T12:29:04.860Z,60.80
2018-10-18T12:31:34.269Z,61.20
2018-10-18T12:34:03.985Z,61.90
2018-10-18T12:36:33.489Z,61.50
2018-10-18T12:39:02.692Z,61.50
2018-10-18T12:41:31.572Z,61.80
2018-10-18T12:44:00.694Z,60.60
2018-10-18T12:46:29.469Z,60.00
2018-10-18T12:48:58.445Z,59.60
2018-10-18T12:51:27.297Z,58.90
2018-10-18T12:53:56.312Z,59.00
2018-10-18T12:56:25.536Z,59.90
2018-10-18T12:58:54.487Z,60.40
2018-10-18T13:01:23.377Z,60.70
2018-10-18T13:03:52.223Z,61.80
2018-10-18T13:06:21.314Z,65.90
2018-10-18T13:08:50.260Z,70.00
2018-10-18T13:11:19.356Z,73.30
2018-10-18T13:13:48.316Z,75.40
2018-10-18T13:16:17.508Z,76.00
2018-10-18T13:18:46.585Z,76.50
2018-10-18T13:21:15.466Z,76.90
2018-10-18T13:23:44.503Z,77.30
2018-10-18T13:26:13.320Z,77.80
2018-10-18T13:28:42.371Z,78.20
2018-10-18T13:31:11.572Z,78.60
2018-10-18T13:33:40.325Z,78.70
2018-10-18T13:36:09.140Z,79.90
2018-10-18T13:38:47.309Z,79.90
2018-10-18T13:41:21.174Z,79.10
2018-10-18T13:43:50.418Z,79.40
2018-10-18T13:46:19.348Z,79.60
2018-10-18T13:48:48.091Z,79.90
2018-10-18T13:51:16.853Z,79.90
2018-10-18T13:53:45.768Z,79.70
2018-10-18T13:56:14.771Z,79.90
2018-10-18T13:58:44.086Z,79.30
2018-10-18T14:01:12.961Z,80.10
2018-10-18T14:03:41.871Z,80.70
2018-10-18T14:06:10.792Z,80.10
2018-10-18T14:08:40.264Z,81.20
2018-10-18T14:11:09.290Z,81.20
2018-10-18T14:13:38.088Z,81.80
2018-10-18T14:16:07.109Z,81.30
2018-10-18T14:18:36.070Z,81.10
2018-10-18T14:21:05.382Z,81.00
2018-10-18T14:26:14.775Z,80.20
2018-10-18T14:28:43.667Z,82.10
2018-10-18T14:31:12.480Z,81.90
2018-10-18T14:33:41.517Z,82.20
2018-10-18T14:36:10.550Z,82.50
2018-10-18T14:38:39.391Z,83.10
2018-10-18T14:41:13.312Z,83.20
2018-10-18T14:43:50.808Z,83.50
2018-10-18T14:46:20.062Z,83.90
2018-10-18T14:48:48.875Z,84.10
2018-10-18T14:51:17.622Z,84.60
2018-10-18T14:53:46.591Z,84.70
2018-10-18T14:56:15.575Z,85.00
2018-10-18T14:58:44.599Z,85.30
2018-10-18T15:01:13.521Z,85.30
2018-10-18T15:03:42.250Z,85.20
2018-10-18T15:06:11.195Z,86.20
2018-10-18T15:08:40.080Z,86.60
2018-10-18T15:11:09.355Z,86.60
2018-10-18T15:13:38.606Z,86.70
2018-10-18T15:16:07.343Z,86.90
2018-10-18T15:18:36.240Z,86.70
2018-10-18T15:21:05.215Z,84.70
2018-10-18T15:23:34.116Z,87.10
2018-10-18T15:26:03.060Z,87.20
2018-10-18T15:28:33.686Z,87.70
2018-10-18T15:31:03.183Z,88.20
2018-10-18T15:33:31.952Z,88.10
2018-10-18T15:36:00.849Z,88.30
2018-10-18T15:38:29.765Z,88.40
2018-10-18T15:40:58.775Z,89.40
2018-10-18T15:43:27.904Z,90.30
2018-10-18T15:45:57.216Z,90.10
2018-10-18T15:48:26.286Z,90.20
2018-10-18T15:50:55.218Z,90.20
2018-10-18T15:53:25.244Z,91.20
2018-10-18T15:55:54.203Z,90.90
2018-10-18T15:58:23.165Z,91.10
2018-10-18T16:00:52.396Z,91.40
2018-10-18T16:03:21.429Z,91.50
2018-10-18T16:05:50.458Z,91.60
2018-10-18T16:08:19.385Z,91.90
2018-10-18T16:10:50.757Z,92.00
2018-10-18T16:13:19.491Z,92.00
2018-10-18T16:15:48.376Z,92.00
2018-10-18T16:18:17.315Z,92.00
2018-10-18T16:20:46.754Z,92.70
2018-10-18T16:23:16.344Z,93.10
2018-10-18T16:25:45.220Z,93.30
2018-10-18T16:28:14.127Z,93.60
2018-10-18T16:30:42.869Z,94.00
2018-10-18T16:33:11.812Z,94.00
2018-10-18T16:35:40.748Z,94.00
2018-10-18T16:38:13.382Z,94.60
2018-10-18T16:40:42.388Z,94.60
2018-10-18T16:43:11.423Z,94.70
2018-10-18T16:45:40.302Z,94.80
2018-10-18T16:48:09.689Z,94.90
2018-10-18T16:50:38.601Z,95.10
2018-10-18T16:53:08.034Z,95.30
2018-10-18T16:55:36.876Z,95.70
2018-10-18T16:58:05.702Z,95.60
2018-10-18T17:00:34.499Z,95.60
2018-10-18T17:03:03.308Z,95.80
2018-10-18T17:05:32.063Z,95.80
2018-10-18T17:08:00.735Z,95.80
2018-10-18T17:12:58.426Z,95.50
2018-10-18T17:15:27.362Z,95.90
2018-10-18T17:17:56.487Z,95.90
2018-10-18T17:20:25.573Z,95.90
2018-10-18T17:22:54.723Z,95.70
2018-10-18T17:25:24.339Z,95.80
2018-10-18T17:28:01.041Z,95.80
2018-10-18T17:30:30.096Z,95.80
2018-10-18T17:32:58.983Z,95.80
2018-10-18T17:35:28.229Z,94.70
2018-10-18T17:37:57.497Z,95.80
2018-10-18T17:40:26.617Z,95.70
2018-10-18T17:42:55.561Z,96.20
2018-10-18T17:45:26.351Z,96.40
2018-10-18T17:47:55.472Z,96.40
2018-10-18T17:50:24.587Z,96.50
2018-10-18T17:52:53.447Z,96.50
2018-10-18T17:55:22.736Z,96.50
2018-10-18T17:57:53.024Z,96.50
2018-10-18T18:00:21.817Z,96.80
2018-10-18T18:02:50.644Z,97.00
2018-10-18T18:05:19.397Z,96.90
2018-10-18T18:07:48.180Z,96.90
2018-10-18T18:10:17.702Z,97.00
2018-10-18T18:12:46.580Z,97.00
2018-10-18T18:15:15.309Z,97.10
2018-10-18T18:17:44.154Z,97.20
2018-10-18T18:20:15.377Z,97.30
2018-10-18T18:22:44.283Z,97.30
2018-10-18T18:25:13.474Z,97.30
2018-10-18T18:27:42.297Z,97.30
2018-10-18T18:30:13.188Z,97.30
2018-10-18T18:32:42.440Z,97.60
2018-10-18T18:35:11.322Z,97.10
2018-10-18T18:37:42.243Z,96.20
2018-10-18T18:40:11.233Z,96.70
2018-10-18T18:42:41.882Z,96.80
2018-10-18T18:45:15.989Z,97.30
2018-10-18T18:47:44.825Z,97.30
2018-10-18T18:50:13.503Z,97.30
2018-10-18T18:52:43.103Z,97.50
2018-10-18T18:55:12.716Z,96.40
2018-10-18T18:57:41.630Z,97.20
2018-10-18T19:00:11.154Z,97.10
2018-10-18T19:02:40.094Z,97.40
2018-10-18T19:05:09.391Z,96.70
2018-10-18T19:07:38.413Z,97.40
2018-10-18T19:10:07.840Z,97.10
2018-10-18T19:12:36.505Z,97.10
2018-10-18T19:15:05.872Z,97.20
2018-10-18T19:17:34.705Z,97.10
2018-10-18T19:20:04.309Z,97.30
2018-10-18T19:22:33.101Z,97.30
2018-10-18T19:25:02.132Z,97.40
2018-10-18T19:27:30.953Z,97.40
2018-10-18T19:29:59.903Z,97.00
2018-10-18T19:32:28.798Z,97.20
2018-10-18T19:34:58.023Z,96.90
2018-10-18T19:37:26.875Z,96.90
2018-10-18T19:39:55.668Z,97.00
2018-10-18T19:42:24.903Z,97.20
2018-10-18T19:44:53.922Z,97.40
2018-10-18T19:47:23.311Z,97.90
2018-10-18T19:49:52.295Z,97.60
2018-10-18T19:52:21.225Z,97.60
2018-10-18T19:54:50.034Z,97.60
2018-10-18T19:57:18.882Z,97.80
2018-10-18T19:59:49.006Z,97.00
2018-10-18T20:02:17.748Z,97.20
2018-10-18T20:04:46.607Z,97.20
2018-10-18T20:07:15.670Z,97.70
2018-10-18T20:09:44.590Z,97.20
2018-10-18T20:12:13.629Z,97.20
2018-10-18T20:14:42.399Z,97.40
2018-10-18T20:17:11.307Z,97.60
2018-10-18T20:19:40.049Z,97.70
2018-10-18T20:22:11.727Z,98.10
2018-10-18T20:24:41.249Z,97.60
2018-10-18T20:27:10.771Z,96.70
2018-10-18T20:29:43.240Z,98.00
2018-10-18T20:32:12.116Z,97.70
2018-10-18T20:34:40.863Z,97.80
2018-10-18T20:37:09.685Z,96.90
2018-10-18T20:39:38.558Z,97.90
2018-10-18T20:42:09.433Z,97.90
2018-10-18T20:44:38.200Z,98.00
2018-10-18T20:47:06.915Z,98.20
2018-10-18T20:49:35.792Z,97.90
2018-10-18T20:52:04.790Z,97.90
2018-10-18T20:54:34.073Z,98.10
2018-10-18T20:57:02.946Z,98.10
2018-10-18T20:59:31.618Z,98.10
2018-10-18T21:02:00.365Z,98.00
2018-10-18T21:04:29.192Z,97.90
2018-10-18T21:06:57.926Z,98.10
2018-10-18T21:09:26.659Z,98.40
2018-10-18T21:11:55.468Z,98.40
2018-10-18T21:14:24.235Z,98.60
2018-10-18T21:16:53.126Z,98.70
2018-10-18T21:19:21.835Z,98.70
2018-10-18T21:21:50.699Z,98.50
2018-10-18T21:24:19.486Z,98.80
2018-10-18T21:26:48.362Z,98.80
2018-10-18T21:29:18.617Z,98.60
2018-10-18T21:31:47.265Z,98.40
2018-10-18T21:34:16.149Z,98.40
2018-10-18T21:36:44.921Z,98.50
2018-10-18T21:39:18.148Z,98.60
2018-10-18T21:41:46.828Z,98.80
2018-10-18T21:44:15.648Z,99.10
2018-10-18T21:46:44.493Z,99.10
2018-10-18T21:49:13.232Z,99.00
2018-10-18T21:51:43.335Z,99.00
2018-10-18T21:54:12.070Z,99.00
2018-10-18T21:56:41.508Z,98.90
2018-10-18T21:59:10.449Z,99.00
2018-10-18T22:01:40.317Z,98.90
2018-10-18T22:04:09.196Z,98.90
2018-10-18T22:06:41.143Z,98.90
2018-10-18T22:09:10.102Z,98.90
2018-10-18T22:11:38.773Z,99.20
2018-10-18T22:14:08.740Z,99.40
2018-10-18T22:16:38.163Z,99.50
2018-10-18T22:19:07.922Z,99.50
2018-10-18T22:21:38.732Z,99.50
2018-10-18T22:24:08.508Z,99.50
2018-10-18T22:26:37.158Z,99.80
2018-10-18T22:29:06.557Z,99.40
2018-10-18T22:31:35.424Z,99.50
2018-10-18T22:34:04.585Z,99.50
2018-10-18T22:36:33.438Z,99.50
2018-10-18T22:39:02.322Z,99.50
2018-10-18T22:41:31.068Z,99.40
2018-10-18T22:43:59.819Z,99.60
2018-10-18T22:46:29.487Z,99.70
2018-10-18T22:48:58.307Z,99.80
2018-10-18T22:51:27.181Z,99.90
2018-10-18T22:53:55.864Z,99.90
2018-10-18T22:56:24.741Z,99.90
2018-10-18T22:58:53.737Z,99.10
2018-10-18T23:01:22.368Z,99.80
2018-10-18T23:03:51.860Z,99.70
2018-10-18T23:06:20.764Z,99.70
2018-10-18T23:08:49.535Z,99.90
2018-10-18T23:11:18.403Z,99.80
2018-10-18T23:13:47.180Z,99.80
2018-10-18T23:16:15.859Z,99.90
2018-10-18T23:18:44.545Z,99.90
2018-10-18T23:21:13.328Z,99.90
2018-10-18T23:23:41.928Z,99.90
2018-10-18T23:26:10.643Z,99.90
2018-10-18T23:28:39.435Z,99.90
2018-10-18T23:31:08.132Z,99.90
2018-10-18T23:33:37.573Z,99.90
2018-10-18T23:36:06.404Z,99.90
2018-10-18T23:38:35.093Z,99.90
2018-10-18T23:41:04.143Z,99.90
2018-10-18T23:43:33.049Z,99.90
2018-10-18T23:46:01.764Z,99.90
2018-10-18T23:48:30.335Z,99.90
2018-10-18T23:50:59.163Z,99.90
2018-10-18T23:53:27.867Z,99.90
2018-10-18T23:55:56.602Z,99.90
2018-10-18T23:58:26.144Z,99.90
